sensor_id;sensor_type;location;lat;lon;timestamp;pressure;altitude;pressure_sealevel;temperature;humidity
6349;BME280;3207;42.648;23.406;2022-07-11T00:02:04;100467.16;;;19.51;61.83
6349;BME280;3207;42.648;23.406;2022-07-11T00:04:33;100466.16;;;19.52;60.87
6349;BME280;3207;42.648;23.406;2022-07-11T00:07:01;100463.53;;;19.52;60.10
6349;BME280;3207;42.648;23.406;2022-07-11T00:09:28;100465.50;;;19.50;60.08
6349;BME280;3207;42.648;23.406;2022-07-11T00:11:56;100465.78;;;19.47;61.29
6349;BME280;3207;42.648;23.406;2022-07-11T00:14:24;100474.88;;;19.45;62.82
6349;BME280;3207;42.648;23.406;2022-07-11T00:16:51;100476.66;;;19.36;65.28
6349;BME280;3207;42.648;23.406;2022-07-11T00:19:19;100474.88;;;19.19;67.02
6349;BME280;3207;42.648;23.406;2022-07-11T00:21:45;100474.56;;;19.22;66.73
6349;BME280;3207;42.648;23.406;2022-07-11T00:24:12;100477.63;;;19.09;67.06
6349;BME280;3207;42.648;23.406;2022-07-11T00:26:39;100429.53;;;18.78;67.08
6349;BME280;3207;42.648;23.406;2022-07-11T00:29:06;100476.41;;;18.95;67.42
6349;BME280;3207;42.648;23.406;2022-07-11T00:31:33;100483.41;;;18.87;67.52
6349;BME280;3207;42.648;23.406;2022-07-11T00:34:00;100494.69;;;18.89;67.43
6349;BME280;3207;42.648;23.406;2022-07-11T00:36:27;100495.63;;;18.80;67.95
6349;BME280;3207;42.648;23.406;2022-07-11T00:38:54;100495.00;;;18.86;66.76
6349;BME280;3207;42.648;23.406;2022-07-11T00:41:20;100489.94;;;18.92;66.20
6349;BME280;3207;42.648;23.406;2022-07-11T00:43:51;100488.50;;;18.80;66.18
6349;BME280;3207;42.648;23.406;2022-07-11T00:46:19;100484.81;;;18.73;66.09
6349;BME280;3207;42.648;23.406;2022-07-11T00:48:48;100485.03;;;18.62;66.05
6349;BME280;3207;42.648;23.406;2022-07-11T00:51:15;100494.66;;;18.63;66.17
6349;BME280;3207;42.648;23.406;2022-07-11T00:53:48;100492.88;;;18.54;66.26
6349;BME280;3207;42.648;23.406;2022-07-11T00:56:16;100492.69;;;18.55;66.28
6349;BME280;3207;42.648;23.406;2022-07-11T00:58:43;100507.00;;;18.45;66.28
6349;BME280;3207;42.648;23.406;2022-07-11T01:01:10;100509.50;;;18.46;66.41
6349;BME280;3207;42.648;23.406;2022-07-11T01:03:37;100492.16;;;18.34;66.61
6349;BME280;3207;42.648;23.406;2022-07-11T01:06:06;100495.78;;;18.33;66.98
6349;BME280;3207;42.648;23.406;2022-07-11T01:08:33;100490.34;;;18.35;67.42
6349;BME280;3207;42.648;23.406;2022-07-11T01:11:01;100486.13;;;18.42;68.07
6349;BME280;3207;42.648;23.406;2022-07-11T01:13:28;100494.88;;;18.24;68.50
6349;BME280;3207;42.648;23.406;2022-07-11T01:16:09;100496.78;;;18.32;68.02
6349;BME280;3207;42.648;23.406;2022-07-11T01:18:35;100495.56;;;18.26;68.07
6349;BME280;3207;42.648;23.406;2022-07-11T01:21:09;100493.81;;;18.35;67.69
6349;BME280;3207;42.648;23.406;2022-07-11T01:23:37;100481.78;;;18.23;67.51
6349;BME280;3207;42.648;23.406;2022-07-11T01:26:04;100492.16;;;18.34;67.21
6349;BME280;3207;42.648;23.406;2022-07-11T01:28:30;100490.34;;;18.35;66.42
6349;BME280;3207;42.648;23.406;2022-07-11T01:30:57;100485.44;;;18.40;65.65
6349;BME280;3207;42.648;23.406;2022-07-11T01:33:23;100490.44;;;18.43;64.92
6349;BME280;3207;42.648;23.406;2022-07-11T01:35:50;100485.94;;;18.25;65.00
6349;BME280;3207;42.648;23.406;2022-07-11T01:38:16;100482.03;;;18.29;65.10
6349;BME280;3207;42.648;23.406;2022-07-11T01:40:44;100477.03;;;18.26;64.96
6349;BME280;3207;42.648;23.406;2022-07-11T01:43:11;100482.03;;;18.29;64.96
6349;BME280;3207;42.648;23.406;2022-07-11T01:45:37;100476.06;;;18.27;65.28
6349;BME280;3207;42.648;23.406;2022-07-11T01:48:04;100480.50;;;18.27;65.86
6349;BME280;3207;42.648;23.406;2022-07-11T01:50:31;100479.09;;;18.33;65.41
6349;BME280;3207;42.648;23.406;2022-07-11T01:52:58;100482.41;;;18.35;65.46
6349;BME280;3207;42.648;23.406;2022-07-11T01:55:24;100480.16;;;18.22;65.90
6349;BME280;3207;42.648;23.406;2022-07-11T01:57:52;100492.44;;;18.13;66.12
6349;BME280;3207;42.648;23.406;2022-07-11T02:00:19;100493.13;;;18.15;66.02
6349;BME280;3207;42.648;23.406;2022-07-11T02:02:45;100477.38;;;18.14;66.20
6349;BME280;3207;42.648;23.406;2022-07-11T02:05:12;100488.28;;;18.11;66.10
6349;BME280;3207;42.648;23.406;2022-07-11T02:07:38;100477.16;;;18.07;65.80
6349;BME280;3207;42.648;23.406;2022-07-11T02:10:22;100477.63;;;18.20;65.43
6349;BME280;3207;42.648;23.406;2022-07-11T02:12:55;100476.47;;;18.23;65.33
6349;BME280;3207;42.648;23.406;2022-07-11T02:15:22;100484.28;;;18.24;65.19
6349;BME280;3207;42.648;23.406;2022-07-11T02:17:48;100490.03;;;18.20;65.60
6349;BME280;3207;42.648;23.406;2022-07-11T02:20:17;100488.22;;;18.20;65.88
6349;BME280;3207;42.648;23.406;2022-07-11T02:22:44;100489.34;;;18.18;66.16
6349;BME280;3207;42.648;23.406;2022-07-11T02:25:10;100498.75;;;18.30;65.59
6349;BME280;3207;42.648;23.406;2022-07-11T02:27:37;100495.97;;;18.32;64.64
6349;BME280;3207;42.648;23.406;2022-07-11T02:30:06;100484.00;;;18.27;64.09
6349;BME280;3207;42.648;23.406;2022-07-11T02:32:33;100493.97;;;18.34;63.86
6349;BME280;3207;42.648;23.406;2022-07-11T02:35:00;100485.06;;;18.35;63.24
6349;BME280;3207;42.648;23.406;2022-07-11T02:37:26;100481.34;;;18.45;62.91
6349;BME280;3207;42.648;23.406;2022-07-11T02:39:53;100493.31;;;18.49;62.82
6349;BME280;3207;42.648;23.406;2022-07-11T02:42:20;100496.34;;;18.54;62.91
6349;BME280;3207;42.648;23.406;2022-07-11T02:44:46;100502.78;;;18.52;62.91
6349;BME280;3207;42.648;23.406;2022-07-11T02:47:14;100504.28;;;18.54;62.61
6349;BME280;3207;42.648;23.406;2022-07-11T02:49:41;100491.38;;;18.51;63.20
6349;BME280;3207;42.648;23.406;2022-07-11T02:52:08;100487.69;;;18.62;62.95
6349;BME280;3207;42.648;23.406;2022-07-11T02:54:36;100494.38;;;18.56;63.27
6349;BME280;3207;42.648;23.406;2022-07-11T02:57:03;100502.78;;;18.52;63.34
6349;BME280;3207;42.648;23.406;2022-07-11T02:59:29;100504.19;;;18.46;63.55
6349;BME280;3207;42.648;23.406;2022-07-11T03:01:56;100516.25;;;18.41;63.91
6349;BME280;3207;42.648;23.406;2022-07-11T03:04:24;100511.16;;;18.47;63.84
6349;BME280;3207;42.648;23.406;2022-07-11T03:06:51;100505.09;;;18.55;63.96
6349;BME280;3207;42.648;23.406;2022-07-11T03:09:19;100506.22;;;18.62;64.56
6349;BME280;3207;42.648;23.406;2022-07-11T03:11:45;100498.28;;;18.62;65.08
6349;BME280;3207;42.648;23.406;2022-07-11T03:14:12;100497.97;;;18.65;65.05
6349;BME280;3207;42.648;23.406;2022-07-11T03:16:38;100512.44;;;18.71;64.78
6349;BME280;3207;42.648;23.406;2022-07-11T03:19:05;100514.38;;;18.69;64.82
6349;BME280;3207;42.648;23.406;2022-07-11T03:21:33;100517.72;;;18.71;64.67
6349;BME280;3207;42.648;23.406;2022-07-11T03:23:59;100514.59;;;18.75;63.65
6349;BME280;3207;42.648;23.406;2022-07-11T03:26:26;100515.91;;;18.71;63.65
6349;BME280;3207;42.648;23.406;2022-07-11T03:28:53;100509.56;;;18.64;64.15
6349;BME280;3207;42.648;23.406;2022-07-11T03:31:19;100511.97;;;18.57;64.61
6349;BME280;3207;42.648;23.406;2022-07-11T03:33:46;100511.38;;;18.63;64.74
6349;BME280;3207;42.648;23.406;2022-07-11T03:36:13;100513.56;;;18.68;64.82
6349;BME280;3207;42.648;23.406;2022-07-11T03:38:41;100509.78;;;18.71;65.11
6349;BME280;3207;42.648;23.406;2022-07-11T03:41:07;100508.94;;;18.70;65.15
6349;BME280;3207;42.648;23.406;2022-07-11T03:43:34;100509.09;;;18.69;64.57
6349;BME280;3207;42.648;23.406;2022-07-11T03:46:00;100514.59;;;18.75;64.00
6349;BME280;3207;42.648;23.406;2022-07-11T03:48:27;100446.28;;;18.43;63.95
6349;BME280;3207;42.648;23.406;2022-07-11T03:50:53;100507.88;;;18.81;64.11
6349;BME280;3207;42.648;23.406;2022-07-11T03:53:20;100510.00;;;18.77;63.79
6349;BME280;3207;42.648;23.406;2022-07-11T03:55:48;100512.56;;;18.69;63.61
6349;BME280;3207;42.648;23.406;2022-07-11T03:58:15;100512.97;;;18.74;63.64
6349;BME280;3207;42.648;23.406;2022-07-11T04:00:42;100510.69;;;18.79;63.48
6349;BME280;3207;42.648;23.406;2022-07-11T04:03:08;100513.41;;;18.87;63.73
6349;BME280;3207;42.648;23.406;2022-07-11T04:05:36;100510.84;;;18.95;63.33
6349;BME280;3207;42.648;23.406;2022-07-11T04:08:02;100513.31;;;18.79;63.74
6349;BME280;3207;42.648;23.406;2022-07-11T04:10:29;100513.81;;;18.75;64.09
6349;BME280;3207;42.648;23.406;2022-07-11T04:12:57;100519.84;;;18.67;64.72
6349;BME280;3207;42.648;23.406;2022-07-11T04:15:23;100520.84;;;18.56;65.39
6349;BME280;3207;42.648;23.406;2022-07-11T04:17:50;100516.69;;;18.63;65.00
6349;BME280;3207;42.648;23.406;2022-07-11T04:20:16;100519.69;;;18.69;64.95
6349;BME280;3207;42.648;23.406;2022-07-11T04:22:43;100513.41;;;18.70;64.95
6349;BME280;3207;42.648;23.406;2022-07-11T04:25:10;100514.94;;;18.72;65.44
6349;BME280;3207;42.648;23.406;2022-07-11T04:27:36;100514.47;;;18.77;65.07
6349;BME280;3207;42.648;23.406;2022-07-11T04:30:05;100515.91;;;18.71;65.53
6349;BME280;3207;42.648;23.406;2022-07-11T04:32:32;100525.88;;;18.77;65.43
6349;BME280;3207;42.648;23.406;2022-07-11T04:35:01;100534.00;;;18.93;64.12
6349;BME280;3207;42.648;23.406;2022-07-11T04:37:27;100529.59;;;19.02;63.65
6349;BME280;3207;42.648;23.406;2022-07-11T04:39:54;100534.34;;;18.98;63.68
6349;BME280;3207;42.648;23.406;2022-07-11T04:42:20;100532.41;;;19.00;63.43
6349;BME280;3207;42.648;23.406;2022-07-11T04:44:48;100530.97;;;19.06;61.93
6349;BME280;3207;42.648;23.406;2022-07-11T04:47:15;100527.78;;;19.02;61.80
6349;BME280;3207;42.648;23.406;2022-07-11T04:49:42;100529.66;;;19.10;61.73
6349;BME280;3207;42.648;23.406;2022-07-11T04:52:12;100534.19;;;19.18;60.87
6349;BME280;3207;42.648;23.406;2022-07-11T04:54:38;100534.63;;;19.31;60.39
6349;BME280;3207;42.648;23.406;2022-07-11T04:57:05;100524.84;;;19.31;59.95
6349;BME280;3207;42.648;23.406;2022-07-11T04:59:33;100539.66;;;19.42;59.65
6349;BME280;3207;42.648;23.406;2022-07-11T05:01:59;100544.09;;;19.33;59.83
6349;BME280;3207;42.648;23.406;2022-07-11T05:04:27;100540.75;;;19.31;59.30
6349;BME280;3207;42.648;23.406;2022-07-11T05:06:54;100538.75;;;19.51;58.66
6349;BME280;3207;42.648;23.406;2022-07-11T05:09:20;100532.53;;;19.60;58.22
6349;BME280;3207;42.648;23.406;2022-07-11T05:11:47;100539.22;;;19.72;58.05
6349;BME280;3207;42.648;23.406;2022-07-11T05:14:13;100538.56;;;19.70;56.88
6349;BME280;3207;42.648;23.406;2022-07-11T05:16:40;100526.34;;;19.78;56.33
6349;BME280;3207;42.648;23.406;2022-07-11T05:19:06;100544.78;;;19.87;54.99
6349;BME280;3207;42.648;23.406;2022-07-11T05:21:34;100545.03;;;20.02;55.18
6349;BME280;3207;42.648;23.406;2022-07-11T05:24:01;100546.84;;;20.01;55.05
6349;BME280;3207;42.648;23.406;2022-07-11T05:26:28;100545.38;;;20.07;54.73
6349;BME280;3207;42.648;23.406;2022-07-11T05:28:54;100546.09;;;20.17;54.94
6349;BME280;3207;42.648;23.406;2022-07-11T05:31:21;100546.09;;;20.25;55.05
6349;BME280;3207;42.648;23.406;2022-07-11T05:33:47;100548.81;;;20.33;54.63
6349;BME280;3207;42.648;23.406;2022-07-11T05:36:14;100547.06;;;20.50;54.34
6349;BME280;3207;42.648;23.406;2022-07-11T05:38:42;100550.25;;;20.62;54.17
6349;BME280;3207;42.648;23.406;2022-07-11T05:41:08;100556.38;;;20.62;54.10
6349;BME280;3207;42.648;23.406;2022-07-11T05:43:35;100550.41;;;20.68;53.38
6349;BME280;3207;42.648;23.406;2022-07-11T05:46:04;100557.22;;;20.87;52.51
6349;BME280;3207;42.648;23.406;2022-07-11T05:48:30;100554.78;;;20.94;51.93
6349;BME280;3207;42.648;23.406;2022-07-11T05:50:57;100567.06;;;21.11;52.10
6349;BME280;3207;42.648;23.406;2022-07-11T05:53:24;100564.09;;;21.14;50.30
6349;BME280;3207;42.648;23.406;2022-07-11T05:55:51;100560.78;;;21.20;50.26
6349;BME280;3207;42.648;23.406;2022-07-11T05:58:18;100561.28;;;21.24;50.05
6349;BME280;3207;42.648;23.406;2022-07-11T06:00:45;100562.94;;;21.25;49.69
6349;BME280;3207;42.648;23.406;2022-07-11T06:03:11;100566.28;;;21.27;50.33
6349;BME280;3207;42.648;23.406;2022-07-11T06:05:38;100565.25;;;21.11;50.49
6349;BME280;3207;42.648;23.406;2022-07-11T06:08:05;100569.22;;;20.99;50.03
6349;BME280;3207;42.648;23.406;2022-07-11T06:10:48;100569.88;;;20.93;48.14
6349;BME280;3207;42.648;23.406;2022-07-11T06:13:17;100569.88;;;21.01;47.84
6349;BME280;3207;42.648;23.406;2022-07-11T06:15:44;100572.53;;;21.01;48.05
6349;BME280;3207;42.648;23.406;2022-07-11T06:18:12;100569.41;;;21.06;48.09
6349;BME280;3207;42.648;23.406;2022-07-11T06:20:38;100574.06;;;21.12;48.75
6349;BME280;3207;42.648;23.406;2022-07-11T06:23:05;100575.19;;;21.09;48.82
6349;BME280;3207;42.648;23.406;2022-07-11T06:25:32;100570.22;;;21.14;48.87
6349;BME280;3207;42.648;23.406;2022-07-11T06:27:59;100573.91;;;21.22;49.67
6349;BME280;3207;42.648;23.406;2022-07-11T06:30:28;100574.91;;;21.37;49.82
6349;BME280;3207;42.648;23.406;2022-07-11T06:32:56;100566.63;;;21.40;49.57
6349;BME280;3207;42.648;23.406;2022-07-11T06:35:23;100573.91;;;21.54;48.23
6349;BME280;3207;42.648;23.406;2022-07-11T06:37:49;100575.72;;;21.70;47.94
6349;BME280;3207;42.648;23.406;2022-07-11T06:40:16;100579.84;;;21.80;47.79
6349;BME280;3207;42.648;23.406;2022-07-11T06:42:43;100580.50;;;21.74;47.79
6349;BME280;3207;42.648;23.406;2022-07-11T06:45:10;100580.50;;;21.99;47.06
6349;BME280;3207;42.648;23.406;2022-07-11T06:47:38;100581.47;;;21.98;46.07
6349;BME280;3207;42.648;23.406;2022-07-11T06:50:05;100570.66;;;21.83;45.04
6349;BME280;3207;42.648;23.406;2022-07-11T06:52:32;100588.16;;;22.02;43.75
6349;BME280;3207;42.648;23.406;2022-07-11T06:54:59;100582.81;;;22.02;44.16
6349;BME280;3207;42.648;23.406;2022-07-11T06:57:25;100581.63;;;21.96;43.72
6349;BME280;3207;42.648;23.406;2022-07-11T06:59:52;100583.53;;;21.71;44.43
6349;BME280;3207;42.648;23.406;2022-07-11T07:02:18;100598.47;;;21.72;44.21
6349;BME280;3207;42.648;23.406;2022-07-11T07:04:46;100591.84;;;21.68;44.28
6349;BME280;3207;42.648;23.406;2022-07-11T07:07:13;100589.66;;;21.80;44.84
6349;BME280;3207;42.648;23.406;2022-07-11T07:09:40;100595.44;;;22.08;43.54
6349;BME280;3207;42.648;23.406;2022-07-11T07:12:07;100584.13;;;21.98;44.39
6349;BME280;3207;42.648;23.406;2022-07-11T07:14:33;100590.97;;;22.00;44.55
6349;BME280;3207;42.648;23.406;2022-07-11T07:17:00;100582.34;;;21.82;46.63
6349;BME280;3207;42.648;23.406;2022-07-11T07:19:26;100587.78;;;22.05;46.41
6349;BME280;3207;42.648;23.406;2022-07-11T07:21:54;100588.94;;;22.10;46.57
6349;BME280;3207;42.648;23.406;2022-07-11T07:24:21;100584.38;;;22.35;45.95
6349;BME280;3207;42.648;23.406;2022-07-11T07:26:47;100592.97;;;21.98;45.69
6349;BME280;3207;42.648;23.406;2022-07-11T07:29:14;100589.91;;;22.17;44.55
6349;BME280;3207;42.648;23.406;2022-07-11T07:31:40;100584.13;;;21.98;45.24
6349;BME280;3207;42.648;23.406;2022-07-11T07:34:07;100577.66;;;21.92;44.63
6349;BME280;3207;42.648;23.406;2022-07-11T07:36:34;100584.22;;;22.28;44.76
6349;BME280;3207;42.648;23.406;2022-07-11T07:39:02;100586.81;;;22.45;44.75
6349;BME280;3207;42.648;23.406;2022-07-11T07:41:29;100585.72;;;22.62;44.23
6349;BME280;3207;42.648;23.406;2022-07-11T07:43:56;100578.75;;;22.53;44.44
6349;BME280;3207;42.648;23.406;2022-07-11T07:46:22;100558.56;;;22.58;43.08
6349;BME280;3207;42.648;23.406;2022-07-11T07:48:49;100580.88;;;22.96;43.10
6349;BME280;3207;42.648;23.406;2022-07-11T07:51:15;100586.47;;;23.24;42.55
6349;BME280;3207;42.648;23.406;2022-07-11T07:53:42;100585.88;;;23.37;42.41
6349;BME280;3207;42.648;23.406;2022-07-11T07:56:10;100585.88;;;23.14;40.32
6349;BME280;3207;42.648;23.406;2022-07-11T07:58:36;100595.63;;;23.07;38.96
6349;BME280;3207;42.648;23.406;2022-07-11T08:01:04;100582.31;;;22.99;39.27
6349;BME280;3207;42.648;23.406;2022-07-11T08:03:49;100581.72;;;23.34;39.88
6349;BME280;3207;42.648;23.406;2022-07-11T08:06:15;100593.00;;;22.99;39.27
6349;BME280;3207;42.648;23.406;2022-07-11T08:08:42;100578.66;;;23.00;38.96
6349;BME280;3207;42.648;23.406;2022-07-11T08:11:10;100582.69;;;22.65;39.58
6349;BME280;3207;42.648;23.406;2022-07-11T08:13:36;100568.00;;;22.77;40.17
6349;BME280;3207;42.648;23.406;2022-07-11T08:16:03;100582.28;;;23.07;41.26
6349;BME280;3207;42.648;23.406;2022-07-11T08:18:31;100579.72;;;22.91;42.39
6349;BME280;3207;42.648;23.406;2022-07-11T08:20:57;100585.13;;;23.28;40.98
6349;BME280;3207;42.648;23.406;2022-07-11T08:23:24;100574.94;;;23.09;41.04
6349;BME280;3207;42.648;23.406;2022-07-11T08:25:50;100581.72;;;23.12;40.08
6349;BME280;3207;42.648;23.406;2022-07-11T08:28:19;100578.03;;;23.35;39.82
6349;BME280;3207;42.648;23.406;2022-07-11T08:30:45;100581.47;;;23.96;38.39
6349;BME280;3207;42.648;23.406;2022-07-11T08:33:12;100571.00;;;24.24;37.52
6349;BME280;3207;42.648;23.406;2022-07-11T08:35:39;100577.56;;;24.58;37.38
6349;BME280;3207;42.648;23.406;2022-07-11T08:38:06;100582.34;;;24.84;36.98
6349;BME280;3207;42.648;23.406;2022-07-11T08:40:32;100578.66;;;24.85;36.85
6349;BME280;3207;42.648;23.406;2022-07-11T08:43:00;100568.47;;;25.09;36.72
6349;BME280;3207;42.648;23.406;2022-07-11T08:45:30;100570.16;;;24.96;36.35
6349;BME280;3207;42.648;23.406;2022-07-11T08:47:58;100569.22;;;25.03;36.09
6349;BME280;3207;42.648;23.406;2022-07-11T08:50:27;100572.56;;;25.12;35.84
6349;BME280;3207;42.648;23.406;2022-07-11T08:52:54;100562.47;;;25.07;35.51
6349;BME280;3207;42.648;23.406;2022-07-11T08:55:21;100570.50;;;25.35;35.09
6349;BME280;3207;42.648;23.406;2022-07-11T08:57:48;100568.50;;;25.93;34.62
6349;BME280;3207;42.648;23.406;2022-07-11T09:00:15;100563.69;;;26.23;34.68
6349;BME280;3207;42.648;23.406;2022-07-11T09:02:43;100556.53;;;26.30;34.05
6349;BME280;3207;42.648;23.406;2022-07-11T09:05:11;100559.06;;;26.45;33.64
6349;BME280;3207;42.648;23.406;2022-07-11T09:07:43;100556.38;;;26.45;33.42
6349;BME280;3207;42.648;23.406;2022-07-11T09:10:09;100552.97;;;25.82;34.36
6349;BME280;3207;42.648;23.406;2022-07-11T09:12:36;100548.50;;;25.96;34.27
6349;BME280;3207;42.648;23.406;2022-07-11T09:15:03;100553.19;;;25.87;34.16
6349;BME280;3207;42.648;23.406;2022-07-11T09:17:30;100546.44;;;25.98;34.25
6349;BME280;3207;42.648;23.406;2022-07-11T09:19:58;100545.41;;;25.99;33.75
6349;BME280;3207;42.648;23.406;2022-07-11T09:22:25;100550.75;;;25.92;34.31
6349;BME280;3207;42.648;23.406;2022-07-11T09:25:10;100548.97;;;26.06;34.12
6349;BME280;3207;42.648;23.406;2022-07-11T09:27:49;100554.19;;;25.86;34.09
6349;BME280;3207;42.648;23.406;2022-07-11T09:30:22;100547.59;;;25.82;34.34
6349;BME280;3207;42.648;23.406;2022-07-11T09:32:53;100542.81;;;26.18;33.87
6349;BME280;3207;42.648;23.406;2022-07-11T09:37:50;100548.59;;;26.15;33.00
6349;BME280;3207;42.648;23.406;2022-07-11T09:40:17;100546.66;;;26.44;31.92
6349;BME280;3207;42.648;23.406;2022-07-11T09:42:47;100539.75;;;26.15;32.37
6349;BME280;3207;42.648;23.406;2022-07-11T09:45:15;100540.75;;;26.14;32.83
6349;BME280;3207;42.648;23.406;2022-07-11T09:47:44;100530.88;;;26.14;33.70
6349;BME280;3207;42.648;23.406;2022-07-11T09:50:10;100540.88;;;26.34;32.63
6349;BME280;3207;42.648;23.406;2022-07-11T09:52:42;100546.09;;;26.61;32.06
6349;BME280;3207;42.648;23.406;2022-07-11T09:55:08;100539.97;;;26.87;31.46
6349;BME280;3207;42.648;23.406;2022-07-11T09:57:36;100526.53;;;26.87;32.07
6349;BME280;3207;42.648;23.406;2022-07-11T10:00:04;100539.81;;;27.15;31.95
6349;BME280;3207;42.648;23.406;2022-07-11T10:02:32;100527.41;;;27.14;31.81
6349;BME280;3207;42.648;23.406;2022-07-11T10:04:59;100552.56;;;26.80;31.44
6349;BME280;3207;42.648;23.406;2022-07-11T10:07:26;100541.00;;;26.86;30.44
6349;BME280;3207;42.648;23.406;2022-07-11T10:09:54;100538.97;;;27.28;30.41
6349;BME280;3207;42.648;23.406;2022-07-11T10:12:21;100542.25;;;27.69;29.83
6349;BME280;3207;42.648;23.406;2022-07-11T10:14:48;100531.91;;;27.66;29.70
6349;BME280;3207;42.648;23.406;2022-07-11T10:17:21;100524.75;;;27.21;30.55
6349;BME280;3207;42.648;23.406;2022-07-11T10:19:53;100511.59;;;27.90;29.37
6349;BME280;3207;42.648;23.406;2022-07-11T10:22:27;100507.38;;;28.08;29.41
6349;BME280;3207;42.648;23.406;2022-07-11T10:24:59;100506.34;;;28.22;28.86
6349;BME280;3207;42.648;23.406;2022-07-11T10:27:35;100518.38;;;28.06;29.60
6349;BME280;3207;42.648;23.406;2022-07-11T10:30:03;100509.81;;;27.45;30.38
6349;BME280;3207;42.648;23.406;2022-07-11T10:32:30;100506.97;;;27.07;30.54
6349;BME280;3207;42.648;23.406;2022-07-11T10:35:08;100505.50;;;27.44;30.37
6349;BME280;3207;42.648;23.406;2022-07-11T10:37:48;100508.38;;;27.36;29.55
6349;BME280;3207;42.648;23.406;2022-07-11T10:40:43;100505.91;;;27.54;29.34
6349;BME280;3207;42.648;23.406;2022-07-11T10:43:11;100492.28;;;26.70;29.76
6349;BME280;3207;42.648;23.406;2022-07-11T10:45:55;100504.66;;;26.77;30.44
6349;BME280;3207;42.648;23.406;2022-07-11T10:48:23;100496.78;;;26.56;30.27
6349;BME280;3207;42.648;23.406;2022-07-11T10:50:54;100500.13;;;26.91;30.71
6349;BME280;3207;42.648;23.406;2022-07-11T10:53:32;100508.22;;;27.11;30.25
6349;BME280;3207;42.648;23.406;2022-07-11T10:56:05;100495.59;;;27.05;30.77
6349;BME280;3207;42.648;23.406;2022-07-11T10:58:41;100498.06;;;27.39;29.40
6349;BME280;3207;42.648;23.406;2022-07-11T11:01:09;100504.06;;;27.28;29.92
6349;BME280;3207;42.648;23.406;2022-07-11T11:03:36;100496.66;;;27.10;30.06
6349;BME280;3207;42.648;23.406;2022-07-11T11:06:03;100491.88;;;26.86;30.53
6349;BME280;3207;42.648;23.406;2022-07-11T11:08:40;100497.00;;;26.81;30.50
6349;BME280;3207;42.648;23.406;2022-07-11T11:11:36;100494.38;;;27.07;30.69
6349;BME280;3207;42.648;23.406;2022-07-11T11:14:19;100493.94;;;27.23;30.75
6349;BME280;3207;42.648;23.406;2022-07-11T11:16:46;100497.25;;;27.12;31.53
6349;BME280;3207;42.648;23.406;2022-07-11T11:19:49;100482.59;;;27.15;31.94
6349;BME280;3207;42.648;23.406;2022-07-11T11:22:16;100486.91;;;26.89;32.32
6349;BME280;3207;42.648;23.406;2022-07-11T11:24:44;100484.63;;;26.67;32.49
6349;BME280;3207;42.648;23.406;2022-07-11T11:27:17;100493.91;;;26.71;32.38
6349;BME280;3207;42.648;23.406;2022-07-11T11:29:47;100497.22;;;26.73;32.27
6349;BME280;3207;42.648;23.406;2022-07-11T11:32:14;100488.75;;;26.56;32.62
6349;BME280;3207;42.648;23.406;2022-07-11T11:34:41;100483.84;;;26.92;32.16
6349;BME280;3207;42.648;23.406;2022-07-11T11:37:07;100479.44;;;27.44;31.33
6349;BME280;3207;42.648;23.406;2022-07-11T11:39:35;100494.75;;;27.37;31.26
6349;BME280;3207;42.648;23.406;2022-07-11T11:42:09;100469.66;;;27.76;30.57
6349;BME280;3207;42.648;23.406;2022-07-11T11:44:50;100475.44;;;28.31;29.89
6349;BME280;3207;42.648;23.406;2022-07-11T11:47:17;100480.47;;;28.27;29.76
6349;BME280;3207;42.648;23.406;2022-07-11T11:49:45;100472.69;;;28.06;29.75
6349;BME280;3207;42.648;23.406;2022-07-11T11:52:12;100471.91;;;28.37;29.76
6349;BME280;3207;42.648;23.406;2022-07-11T11:54:39;100471.34;;;28.60;29.36
6349;BME280;3207;42.648;23.406;2022-07-11T11:57:07;100473.16;;;28.66;28.25
6349;BME280;3207;42.648;23.406;2022-07-11T11:59:36;100465.16;;;28.21;28.58
6349;BME280;3207;42.648;23.406;2022-07-11T12:02:05;100464.34;;;28.84;28.36
6349;BME280;3207;42.648;23.406;2022-07-11T12:04:33;100458.31;;;28.88;28.18
6349;BME280;3207;42.648;23.406;2022-07-11T12:07:02;100469.63;;;27.89;29.66
6349;BME280;3207;42.648;23.406;2022-07-11T12:09:29;100469.59;;;27.18;30.46
6349;BME280;3207;42.648;23.406;2022-07-11T12:12:19;100463.38;;;27.31;30.71
6349;BME280;3207;42.648;23.406;2022-07-11T12:15:05;100457.81;;;27.32;30.46
6349;BME280;3207;42.648;23.406;2022-07-11T12:17:35;100448.53;;;26.95;30.78
6349;BME280;3207;42.648;23.406;2022-07-11T12:20:02;100458.84;;;27.18;30.68
6349;BME280;3207;42.648;23.406;2022-07-11T12:22:29;100456.31;;;27.37;30.22
6349;BME280;3207;42.648;23.406;2022-07-11T12:24:55;100452.16;;;27.60;29.92
6349;BME280;3207;42.648;23.406;2022-07-11T12:27:24;100446.34;;;27.70;30.16
6349;BME280;3207;42.648;23.406;2022-07-11T12:29:51;100455.00;;;27.79;30.36
6349;BME280;3207;42.648;23.406;2022-07-11T12:32:19;100449.25;;;27.68;30.84
6349;BME280;3207;42.648;23.406;2022-07-11T12:34:49;100438.41;;;27.95;30.25
6349;BME280;3207;42.648;23.406;2022-07-11T12:37:17;100448.41;;;28.19;29.76
6349;BME280;3207;42.648;23.406;2022-07-11T12:39:48;100436.91;;;28.44;29.46
6349;BME280;3207;42.648;23.406;2022-07-11T12:42:25;100445.00;;;28.68;29.32
6349;BME280;3207;42.648;23.406;2022-07-11T12:44:56;100442.25;;;27.48;30.80
6349;BME280;3207;42.648;23.406;2022-07-11T12:47:27;100443.22;;;28.24;29.66
6349;BME280;3207;42.648;23.406;2022-07-11T12:49:55;100432.50;;;28.11;29.59
6349;BME280;3207;42.648;23.406;2022-07-11T12:52:22;100424.22;;;28.19;29.16
6349;BME280;3207;42.648;23.406;2022-07-11T12:54:49;100435.09;;;27.93;29.53
6349;BME280;3207;42.648;23.406;2022-07-11T12:57:20;100440.22;;;26.38;31.53
6349;BME280;3207;42.648;23.406;2022-07-11T12:59:47;100439.41;;;26.50;31.38
6349;BME280;3207;42.648;23.406;2022-07-11T13:02:14;100430.34;;;26.78;31.19
6349;BME280;3207;42.648;23.406;2022-07-11T13:04:42;100389.22;;;26.24;31.36
6349;BME280;3207;42.648;23.406;2022-07-11T13:07:26;100433.16;;;26.23;31.91
6349;BME280;3207;42.648;23.406;2022-07-11T13:10:12;100424.16;;;26.64;31.81